createdAt,value
2019-04-07T00:02:11.938Z,96.80
2019-04-07T00:04:41.964Z,96.80
2019-04-07T00:07:13.836Z,96.70
2019-04-07T00:09:44.724Z,96.90
2019-04-07T00:12:15.039Z,96.80
2019-04-07T00:14:45.073Z,96.80
2019-04-07T00:17:15.092Z,97.20
2019-04-07T00:19:45.121Z,97.10
2019-04-07T00:22:15.385Z,97.00
2019-04-07T00:24:45.515Z,97.00
2019-04-07T00:27:15.601Z,97.30
2019-04-07T00:29:45.733Z,97.10
2019-04-07T00:32:15.994Z,97.30
2019-04-07T00:34:46.729Z,97.30
2019-04-07T00:37:17.123Z,97.20
2019-04-07T00:39:47.712Z,97.00
2019-04-07T00:42:18.179Z,97.30
2019-04-07T00:44:49.617Z,97.70
2019-04-07T00:47:19.804Z,98.00
2019-04-07T00:49:50.144Z,98.20
2019-04-07T00:52:22.180Z,98.10
2019-04-07T00:54:52.320Z,97.50
2019-04-07T00:57:22.584Z,97.10
2019-04-07T00:59:54.050Z,97.50
2019-04-07T01:02:24.478Z,97.60
2019-04-07T01:04:55.055Z,97.80
2019-04-07T01:07:25.736Z,97.90
2019-04-07T01:09:55.994Z,97.30
2019-04-07T01:12:26.055Z,97.20
2019-04-07T01:14:56.569Z,97.20
2019-04-07T01:17:27.235Z,97.70
2019-04-07T01:19:57.352Z,97.40
2019-04-07T01:22:27.411Z,97.20
2019-04-07T01:24:57.467Z,97.00
2019-04-07T01:27:27.844Z,97.10
2019-04-07T01:29:59.577Z,97.20
2019-04-07T01:32:30.118Z,97.40
2019-04-07T01:35:00.200Z,97.50
2019-04-07T01:37:30.710Z,97.30
2019-04-07T01:40:01.542Z,96.50
2019-04-07T01:42:36.722Z,96.70
2019-04-07T01:45:11.550Z,97.20
2019-04-07T01:47:45.925Z,97.50
2019-04-07T01:50:17.709Z,97.70
2019-04-07T01:52:49.467Z,97.80
2019-04-07T01:55:30.253Z,97.70
2019-04-07T01:58:04.797Z,97.40
2019-04-07T02:00:52.704Z,97.40
2019-04-07T02:03:23.755Z,97.70
2019-04-07T02:06:07.432Z,97.80
2019-04-07T02:08:40.380Z,98.00
2019-04-07T02:11:23.895Z,97.50
2019-04-07T02:14:11.665Z,97.60
2019-04-07T02:16:59.396Z,97.30
2019-04-07T02:19:37.097Z,97.30
2019-04-07T02:22:08.975Z,97.30
2019-04-07T02:24:46.655Z,97.60
2019-04-07T02:27:21.167Z,97.50
2019-04-07T02:29:58.901Z,97.20
2019-04-07T02:32:46.980Z,97.20
2019-04-07T02:35:34.544Z,97.40
2019-04-07T02:38:24.435Z,97.50
2019-04-07T02:41:01.897Z,97.50
2019-04-07T02:43:42.518Z,97.10
2019-04-07T02:46:24.077Z,97.50
2019-04-07T02:49:08.206Z,96.80
2019-04-07T02:51:43.466Z,96.80
2019-04-07T02:54:21.065Z,97.10
2019-04-07T02:56:52.406Z,97.20
2019-04-07T02:59:24.225Z,97.30
2019-04-07T03:01:59.348Z,97.80
2019-04-07T03:04:44.311Z,97.80
2019-04-07T03:07:20.067Z,97.30
2019-04-07T03:09:52.035Z,97.30
2019-04-07T03:12:40.267Z,97.10
2019-04-07T03:15:12.982Z,97.60
2019-04-07T03:17:53.921Z,97.30
2019-04-07T03:20:43.536Z,97.60
2019-04-07T03:23:31.910Z,98.40
2019-04-07T03:26:16.284Z,98.60
2019-04-07T03:28:58.001Z,98.90
2019-04-07T03:31:36.566Z,99.50
2019-04-07T03:34:26.151Z,99.40
2019-04-07T03:37:18.329Z,99.50
2019-04-07T03:39:43.762Z,99.70
2019-04-07T03:42:21.558Z,99.60
2019-04-07T03:44:53.308Z,99.30
2019-04-07T03:47:37.621Z,99.00
2019-04-07T03:50:10.206Z,99.20
2019-04-07T03:52:42.910Z,99.00
2019-04-07T03:55:17.231Z,99.10
2019-04-07T03:57:50.843Z,99.00
2019-04-07T04:01:03.724Z,98.70
2019-04-07T04:03:38.678Z,98.20
2019-04-07T04:06:11.692Z,97.90
2019-04-07T04:08:46.351Z,98.30
2019-04-07T04:11:27.398Z,98.80
2019-04-07T04:13:59.258Z,99.10
2019-04-07T04:16:29.690Z,99.50
2019-04-07T04:19:00.025Z,99.60
2019-04-07T04:21:30.888Z,99.20
2019-04-07T04:24:01.186Z,99.20
2019-04-07T04:26:31.829Z,99.20
2019-04-07T04:29:02.636Z,99.60
2019-04-07T04:31:33.786Z,99.20
2019-04-07T04:34:04.363Z,99.40
2019-04-07T04:36:34.716Z,99.20
2019-04-07T04:39:07.974Z,99.00
2019-04-07T04:41:38.620Z,99.00
2019-04-07T04:44:10.142Z,99.10
2019-04-07T04:46:41.145Z,99.10
2019-04-07T04:49:11.800Z,99.20
2019-04-07T04:51:42.549Z,99.40
2019-04-07T04:54:12.964Z,99.10
2019-04-07T04:56:44.875Z,98.80
2019-04-07T04:59:15.027Z,98.80
2019-04-07T05:01:45.485Z,98.80
2019-04-07T05:04:16.087Z,98.60
2019-04-07T05:06:46.504Z,98.80
2019-04-07T05:09:16.730Z,99.10
2019-04-07T05:11:47.294Z,98.70
2019-04-07T05:14:17.404Z,98.50
2019-04-07T05:16:48.076Z,98.60
2019-04-07T05:19:18.411Z,98.80
2019-04-07T05:21:48.530Z,98.80
2019-04-07T05:24:19.479Z,98.90
2019-04-07T05:26:49.829Z,98.90
2019-04-07T05:29:20.138Z,98.70
2019-04-07T05:31:50.358Z,97.40
2019-04-07T05:34:22.158Z,97.00
2019-04-07T05:36:54.469Z,96.60
2019-04-07T05:39:24.994Z,96.40
2019-04-07T05:41:55.718Z,95.60
2019-04-07T05:44:26.796Z,94.60
2019-04-07T05:46:56.993Z,94.20
2019-04-07T05:49:27.174Z,94.00
2019-04-07T05:51:59.561Z,93.30
2019-04-07T05:54:29.561Z,93.20
2019-04-07T05:57:01.598Z,93.20
2019-04-07T05:59:32.839Z,93.40
2019-04-07T06:02:03.830Z,92.60
2019-04-07T06:04:34.906Z,92.50
2019-04-07T06:07:05.790Z,92.60
2019-04-07T06:09:36.216Z,92.10
2019-04-07T06:12:09.579Z,92.00
2019-04-07T06:14:38.074Z,92.10
2019-04-07T06:17:08.182Z,92.30
2019-04-07T06:19:41.083Z,92.40
2019-04-07T06:22:10.083Z,92.60
2019-04-07T06:24:40.656Z,92.90
2019-04-07T06:27:10.980Z,93.00
2019-04-07T06:29:41.210Z,93.00
2019-04-07T06:32:11.299Z,92.40
2019-04-07T06:34:44.148Z,93.20
2019-04-07T06:37:13.366Z,93.60
2019-04-07T06:39:45.176Z,93.90
2019-04-07T06:42:16.145Z,92.10
2019-04-07T06:44:46.274Z,91.20
2019-04-07T06:47:18.650Z,90.60
2019-04-07T06:49:50.961Z,86.80
2019-04-07T06:52:25.869Z,86.80
2019-04-07T06:55:14.649Z,82.80
2019-04-07T06:57:49.528Z,83.90
2019-04-07T07:00:26.843Z,85.70
2019-04-07T07:03:09.595Z,85.80
2019-04-07T07:05:58.924Z,86.20
2019-04-07T07:08:42.226Z,85.10
2019-04-07T07:11:08.194Z,86.60
2019-04-07T07:13:44.706Z,85.80
2019-04-07T07:16:34.825Z,84.30
2019-04-07T07:19:09.543Z,84.30
2019-04-07T07:21:43.957Z,81.20
2019-04-07T07:24:15.677Z,80.40
2019-04-07T07:26:46.244Z,80.00
2019-04-07T07:29:17.232Z,80.50
2019-04-07T07:31:51.156Z,81.20
2019-04-07T07:34:19.920Z,83.30
2019-04-07T07:36:53.446Z,84.00
2019-04-07T07:39:23.150Z,85.20
2019-04-07T07:41:53.996Z,85.60
2019-04-07T07:44:24.606Z,85.80
2019-04-07T07:46:55.358Z,85.30
2019-04-07T07:49:28.833Z,84.40
2019-04-07T07:51:59.242Z,83.70
2019-04-07T07:54:30.433Z,83.00
2019-04-07T07:57:01.329Z,81.60
2019-04-07T07:59:35.670Z,82.10
2019-04-07T08:02:03.441Z,81.00
2019-04-07T08:04:34.543Z,82.90
2019-04-07T08:07:05.412Z,83.10
2019-04-07T08:09:35.724Z,80.90
2019-04-07T08:12:06.304Z,81.20
2019-04-07T08:14:37.070Z,81.90
2019-04-07T08:17:07.286Z,83.10
2019-04-07T08:19:40.690Z,82.50
2019-04-07T08:22:09.088Z,81.30
2019-04-07T08:24:39.151Z,82.30
2019-04-07T08:27:09.223Z,82.20
2019-04-07T08:29:39.830Z,82.00
2019-04-07T08:32:09.958Z,82.70
2019-04-07T08:34:40.421Z,81.70
2019-04-07T08:37:14.142Z,82.80
2019-04-07T08:40:18.793Z,83.00
2019-04-07T08:42:50.157Z,81.20
2019-04-07T08:45:21.664Z,80.20
2019-04-07T08:47:52.579Z,79.20
2019-04-07T08:50:23.744Z,78.70
2019-04-07T08:52:55.352Z,78.00
2019-04-07T08:55:25.679Z,76.40
2019-04-07T08:57:58.210Z,74.80
2019-04-07T09:00:30.216Z,74.10
2019-04-07T09:03:05.507Z,71.30
2019-04-07T09:05:32.314Z,70.30
2019-04-07T09:08:05.581Z,69.80
2019-04-07T09:10:49.207Z,70.20
2019-04-07T09:13:17.515Z,70.90
2019-04-07T09:16:05.306Z,71.30
2019-04-07T09:18:36.724Z,70.00
2019-04-07T09:21:15.654Z,67.80
2019-04-07T09:23:48.017Z,67.40
2019-04-07T09:26:21.735Z,67.00
2019-04-07T09:28:58.916Z,66.70
2019-04-07T09:31:36.457Z,65.60
2019-04-07T09:34:11.527Z,62.10
2019-04-07T09:36:43.965Z,65.30
2019-04-07T09:39:16.610Z,63.70
2019-04-07T09:41:55.239Z,63.20
2019-04-07T09:44:43.477Z,64.00
2019-04-07T09:47:23.697Z,61.60
2019-04-07T09:50:12.329Z,59.80
2019-04-07T09:53:00.145Z,59.50
2019-04-07T09:55:50.492Z,62.40
2019-04-07T09:58:25.187Z,63.10
2019-04-07T10:00:57.702Z,64.10
2019-04-07T10:03:39.168Z,64.40
2019-04-07T10:06:16.905Z,61.40
2019-04-07T10:08:48.615Z,59.90
2019-04-07T10:11:36.198Z,59.30
2019-04-07T10:14:08.037Z,61.80
2019-04-07T10:16:45.804Z,60.70
2019-04-07T10:19:32.837Z,60.60
2019-04-07T10:22:07.324Z,60.10
2019-04-07T10:24:51.729Z,60.10
2019-04-07T10:27:35.726Z,58.90
2019-04-07T10:30:14.736Z,60.70
2019-04-07T10:32:46.493Z,58.20
2019-04-07T10:35:34.911Z,58.60
2019-04-07T10:38:12.749Z,59.50
2019-04-07T10:40:53.638Z,61.80
2019-04-07T10:43:41.434Z,59.00
2019-04-07T10:46:16.798Z,59.00
2019-04-07T10:49:04.736Z,59.50
2019-04-07T10:51:48.924Z,59.60
2019-04-07T10:54:21.268Z,59.00
2019-04-07T10:57:08.375Z,59.30
2019-04-07T10:59:42.886Z,57.50
2019-04-07T11:02:18.092Z,56.10
2019-04-07T11:04:50.952Z,58.20
2019-04-07T11:07:22.678Z,58.80
2019-04-07T11:09:54.366Z,62.40
2019-04-07T11:12:37.956Z,59.30
2019-04-07T11:15:27.027Z,58.50
2019-04-07T11:18:15.220Z,59.00
2019-04-07T11:20:47.246Z,59.90
2019-04-07T11:23:19.008Z,61.70
2019-04-07T11:26:02.527Z,59.20
2019-04-07T11:28:46.906Z,59.90
2019-04-07T11:31:18.772Z,61.80
2019-04-07T11:33:55.524Z,62.80
2019-04-07T11:36:30.041Z,62.70
2019-04-07T11:39:13.612Z,59.30
2019-04-07T11:41:45.999Z,57.30
2019-04-07T11:44:19.918Z,58.10
2019-04-07T11:46:53.812Z,60.40
2019-04-07T11:49:31.727Z,59.70
2019-04-07T11:52:12.568Z,56.80
2019-04-07T11:54:50.100Z,55.80
2019-04-07T11:57:41.164Z,57.40
2019-04-07T12:00:26.963Z,58.20
2019-04-07T12:02:59.396Z,58.50
2019-04-07T12:05:37.830Z,56.30
2019-04-07T12:08:28.179Z,55.70
2019-04-07T12:11:04.665Z,57.50
2019-04-07T12:13:37.443Z,54.90
2019-04-07T12:16:12.105Z,53.80
2019-04-07T12:18:44.096Z,55.40
2019-04-07T12:21:23.231Z,54.90
2019-04-07T12:23:58.298Z,55.30
2019-04-07T12:26:30.229Z,54.90
2019-04-07T12:29:10.797Z,54.80
2019-04-07T12:31:48.680Z,54.10
2019-04-07T12:34:35.246Z,55.10
2019-04-07T12:37:10.308Z,53.80
2019-04-07T12:39:47.222Z,55.60
2019-04-07T12:42:18.157Z,54.10
2019-04-07T12:45:05.048Z,53.50
2019-04-07T12:47:37.980Z,54.40
2019-04-07T12:50:26.362Z,51.70
2019-04-07T12:53:10.205Z,49.90
2019-04-07T12:55:42.032Z,51.80
2019-04-07T12:58:32.362Z,49.30
2019-04-07T13:01:14.053Z,51.00
2019-04-07T13:03:40.819Z,53.80
2019-04-07T13:06:24.619Z,56.10
2019-04-07T13:08:57.181Z,53.30
2019-04-07T13:11:35.428Z,53.00
2019-04-07T13:14:15.179Z,53.40
2019-04-07T13:17:03.080Z,54.10
2019-04-07T13:19:35.892Z,52.40
2019-04-07T13:22:16.787Z,52.70
2019-04-07T13:25:07.788Z,53.60
2019-04-07T13:27:56.206Z,52.10
2019-04-07T13:30:45.631Z,51.70
2019-04-07T13:33:20.078Z,48.20
2019-04-07T13:35:53.694Z,47.70
2019-04-07T13:38:31.657Z,48.10
2019-04-07T13:41:20.270Z,48.50
2019-04-07T13:44:08.862Z,47.40
2019-04-07T13:46:41.158Z,48.80
2019-04-07T13:49:16.087Z,48.90
2019-04-07T13:51:48.094Z,47.70
2019-04-07T13:54:20.078Z,48.20
2019-04-07T13:56:54.872Z,47.40
2019-04-07T13:59:27.217Z,46.40
2019-04-07T14:02:16.364Z,47.20
2019-04-07T14:04:55.821Z,47.10
2019-04-07T14:07:35.932Z,50.10
2019-04-07T14:10:26.017Z,50.30
2019-04-07T14:13:04.160Z,49.40
2019-04-07T14:15:34.739Z,46.50
2019-04-07T14:18:19.120Z,46.80
2019-04-07T14:21:00.463Z,48.70
2019-04-07T14:23:33.073Z,47.80
2019-04-07T14:26:16.876Z,44.00
2019-04-07T14:28:51.227Z,46.40
2019-04-07T14:31:32.483Z,44.50
2019-04-07T14:34:04.277Z,45.60
2019-04-07T14:36:40.430Z,46.10
2019-04-07T14:39:24.879Z,48.40
2019-04-07T14:42:03.332Z,48.90
2019-04-07T14:44:35.849Z,48.40
2019-04-07T14:47:23.830Z,48.70
2019-04-07T14:49:57.296Z,50.90
2019-04-07T14:52:28.903Z,50.90
2019-04-07T14:55:17.262Z,51.50
2019-04-07T14:58:05.653Z,50.60
2019-04-07T15:00:41.765Z,50.60
2019-04-07T15:03:12.024Z,50.10
2019-04-07T15:05:49.513Z,51.10
2019-04-07T15:08:21.600Z,50.00
2019-04-07T15:10:53.286Z,51.30
2019-04-07T15:13:28.068Z,53.80
2019-04-07T15:15:57.139Z,54.40
2019-04-07T15:18:27.607Z,54.20
2019-04-07T15:20:57.800Z,55.00
2019-04-07T15:23:31.663Z,53.40
2019-04-07T15:26:00.177Z,53.70
2019-04-07T15:28:32.028Z,53.60
2019-04-07T15:31:03.168Z,54.30
2019-04-07T15:33:34.173Z,54.10
2019-04-07T15:36:07.966Z,54.10
2019-04-07T15:38:40.217Z,56.30
2019-04-07T15:41:15.173Z,54.00
2019-04-07T15:43:44.109Z,55.70
2019-04-07T15:46:16.731Z,56.00
2019-04-07T15:48:46.563Z,56.00
2019-04-07T15:51:17.552Z,55.20
2019-04-07T15:53:51.348Z,55.50
2019-04-07T15:56:20.020Z,55.60
2019-04-07T15:58:51.718Z,57.40
2019-04-07T16:01:22.044Z,58.30
2019-04-07T16:03:53.838Z,57.70
2019-04-07T16:06:24.742Z,56.60
2019-04-07T16:08:57.297Z,56.10
2019-04-07T16:11:29.056Z,57.00
2019-04-07T16:13:59.487Z,56.90
2019-04-07T16:16:30.728Z,58.20
2019-04-07T16:19:01.446Z,60.90
2019-04-07T16:21:31.796Z,66.60
2019-04-07T16:24:02.110Z,69.40
2019-04-07T16:26:35.903Z,69.30
2019-04-07T16:29:07.651Z,69.80
2019-04-07T16:31:37.027Z,72.50
2019-04-07T16:34:08.836Z,73.90
2019-04-07T16:36:38.952Z,76.70
2019-04-07T16:39:09.947Z,78.00
2019-04-07T16:41:40.430Z,78.70
2019-04-07T16:44:11.911Z,79.10
2019-04-07T16:46:42.669Z,80.60
2019-04-07T16:49:13.679Z,81.50
2019-04-07T16:51:44.864Z,82.90
2019-04-07T16:54:16.398Z,83.60
2019-04-07T16:56:50.775Z,83.50
2019-04-07T16:59:19.310Z,83.10
2019-04-07T17:01:49.775Z,83.30
2019-04-07T17:04:20.175Z,84.50
2019-04-07T17:07:00.273Z,85.70
2019-04-07T17:09:25.071Z,84.80
2019-04-07T17:11:54.700Z,85.60
2019-04-07T17:14:25.732Z,86.60
2019-04-07T17:16:56.727Z,86.90
2019-04-07T17:19:27.574Z,87.30
2019-04-07T17:22:00.269Z,87.90
2019-04-07T17:24:30.596Z,88.40
2019-04-07T17:27:02.951Z,88.40
2019-04-07T17:29:32.685Z,89.10
2019-04-07T17:32:03.657Z,89.60
2019-04-07T17:34:47.601Z,88.50
2019-04-07T17:37:17.804Z,89.20
2019-04-07T17:39:55.870Z,88.10
2019-04-07T17:42:28.243Z,88.50
2019-04-07T17:45:20.386Z,86.50
2019-04-07T17:48:02.963Z,86.90
2019-04-07T17:50:38.952Z,86.30
2019-04-07T17:53:15.636Z,85.50
2019-04-07T17:55:51.555Z,86.20
2019-04-07T17:58:22.474Z,86.30
2019-04-07T18:01:02.700Z,87.10
2019-04-07T18:03:36.590Z,87.10
2019-04-07T18:06:18.125Z,86.40
2019-04-07T18:09:10.758Z,86.50
2019-04-07T18:11:39.284Z,86.90
2019-04-07T18:14:28.695Z,87.00
2019-04-07T18:17:03.223Z,87.60
2019-04-07T18:19:36.036Z,87.40
2019-04-07T18:22:08.203Z,87.50
2019-04-07T18:24:43.510Z,86.60
2019-04-07T18:27:24.241Z,86.80
2019-04-07T18:29:59.695Z,86.40
2019-04-07T18:32:41.777Z,86.90
2019-04-07T18:35:15.239Z,86.40
2019-04-07T18:37:53.163Z,86.60
2019-04-07T18:40:37.497Z,87.00
2019-04-07T18:43:14.771Z,86.20
2019-04-07T18:45:48.061Z,85.70
2019-04-07T18:48:24.683Z,85.50
2019-04-07T18:50:57.620Z,84.70
2019-04-07T18:53:32.148Z,84.40
2019-04-07T18:56:06.608Z,84.40
2019-04-07T18:58:37.212Z,84.00
2019-04-07T19:01:25.421Z,84.00
2019-04-07T19:04:06.939Z,84.10
2019-04-07T19:06:42.090Z,84.30
2019-04-07T19:09:12.232Z,84.30
2019-04-07T19:12:08.158Z,85.00
2019-04-07T19:14:50.239Z,84.90
2019-04-07T19:17:35.004Z,85.00
2019-04-07T19:20:24.817Z,84.40
2019-04-07T19:23:12.819Z,84.20
2019-04-07T19:25:50.018Z,84.60
2019-04-07T19:28:21.713Z,84.80
2019-04-07T19:31:02.472Z,84.80
2019-04-07T19:33:34.280Z,85.50
2019-04-07T19:36:19.225Z,84.60
2019-04-07T19:39:00.687Z,84.40
2019-04-07T19:41:42.944Z,84.70
2019-04-07T19:44:37.155Z,85.10
2019-04-07T19:47:06.534Z,85.30
2019-04-07T19:49:38.975Z,84.70
2019-04-07T19:52:20.885Z,84.40
2019-04-07T19:54:57.835Z,85.10
2019-04-07T19:57:36.425Z,85.70
2019-04-07T20:00:27.728Z,86.30
2019-04-07T20:03:03.703Z,86.60
2019-04-07T20:05:48.814Z,87.20
2019-04-07T20:08:24.877Z,88.60
2019-04-07T20:11:11.863Z,89.10
2019-04-07T20:13:44.354Z,90.10
2019-04-07T20:16:17.365Z,90.10
2019-04-07T20:19:01.142Z,90.30
2019-04-07T20:21:49.373Z,90.50
2019-04-07T20:24:36.751Z,90.70
2019-04-07T20:27:12.607Z,91.40
2019-04-07T20:29:50.156Z,91.90
2019-04-07T20:32:28.146Z,92.50
2019-04-07T20:35:18.716Z,92.60
2019-04-07T20:38:02.084Z,92.80
2019-04-07T20:40:50.768Z,93.20
2019-04-07T20:43:23.541Z,93.40
2019-04-07T20:46:11.805Z,93.90
2019-04-07T20:49:00.421Z,94.10
2019-04-07T20:51:51.970Z,93.80
2019-04-07T20:54:27.471Z,93.80
2019-04-07T20:57:18.400Z,94.10
2019-04-07T20:59:56.453Z,94.30
2019-04-07T21:02:43.942Z,94.50
2019-04-07T21:05:32.020Z,94.50
2019-04-07T21:08:24.295Z,94.60
2019-04-07T21:11:01.581Z,94.40
2019-04-07T21:13:50.384Z,94.20
2019-04-07T21:16:29.810Z,94.20
2019-04-07T21:19:11.319Z,94.00
2019-04-07T21:21:49.248Z,93.90
2019-04-07T21:24:37.187Z,94.40
2019-04-07T21:27:14.465Z,94.10
2019-04-07T21:29:50.944Z,94.40
2019-04-07T21:32:25.068Z,94.10
2019-04-07T21:35:00.488Z,93.90
2019-04-07T21:37:35.903Z,93.80
2019-04-07T21:40:11.343Z,93.80
2019-04-07T21:42:59.441Z,93.80
2019-04-07T21:45:37.475Z,93.90
2019-04-07T21:48:10.133Z,94.20
2019-04-07T21:50:46.718Z,94.30
2019-04-07T21:53:28.865Z,94.30
2019-04-07T21:56:14.354Z,95.00
2019-04-07T21:59:02.118Z,94.80
2019-04-07T22:01:52.903Z,94.70
2019-04-07T22:04:36.450Z,95.50
2019-04-07T22:07:23.430Z,95.40
2019-04-07T22:09:55.139Z,95.30
2019-04-07T22:12:28.673Z,95.00
2019-04-07T22:14:57.095Z,95.00
2019-04-07T22:17:32.601Z,94.70
2019-04-07T22:20:01.262Z,94.80
2019-04-07T22:22:33.176Z,95.00
2019-04-07T22:25:07.912Z,94.90
2019-04-07T22:27:36.079Z,95.30
2019-04-07T22:30:11.312Z,95.80
2019-04-07T22:32:41.418Z,95.50
2019-04-07T22:35:12.660Z,95.90
2019-04-07T22:37:43.873Z,96.70
2019-04-07T22:40:19.722Z,96.20
2019-04-07T22:42:50.051Z,96.20
2019-04-07T22:45:25.129Z,96.80
2019-04-07T22:47:52.863Z,96.40
2019-04-07T22:50:23.977Z,96.00
2019-04-07T22:52:55.385Z,96.00
2019-04-07T22:55:25.655Z,96.10
2019-04-07T22:57:55.847Z,96.60
2019-04-07T23:00:26.904Z,96.10
2019-04-07T23:02:57.314Z,96.20
2019-04-07T23:05:27.709Z,96.20
2019-04-07T23:07:57.961Z,96.30
2019-04-07T23:10:28.031Z,96.50
2019-04-07T23:12:58.150Z,97.00
2019-04-07T23:15:38.598Z,96.80
2019-04-07T23:18:00.171Z,96.70
2019-04-07T23:20:31.146Z,96.70
2019-04-07T23:23:01.391Z,97.10
2019-04-07T23:25:32.197Z,97.00
2019-04-07T23:28:02.717Z,97.70
2019-04-07T23:30:33.361Z,98.60
2019-04-07T23:33:04.173Z,99.20
2019-04-07T23:35:35.077Z,98.40
2019-04-07T23:38:05.805Z,98.50
2019-04-07T23:40:36.166Z,98.50
2019-04-07T23:43:06.340Z,98.90
2019-04-07T23:45:36.457Z,98.60
2019-04-07T23:48:07.012Z,98.20
2019-04-07T23:50:39.125Z,98.00
2019-04-07T23:53:47.035Z,97.90
2019-04-07T23:56:17.723Z,97.70
2019-04-07T23:58:47.615Z,97.40
